createdAt,value
2018-05-06T00:05:24.551Z,6.77
2018-05-06T00:11:19.568Z,7.83
2018-05-06T00:17:14.514Z,7.82
2018-05-06T00:23:09.557Z,7.41
2018-05-06T00:29:04.596Z,7.43
2018-05-06T00:34:59.529Z,7.64
2018-05-06T00:40:54.566Z,6.42
2018-05-06T00:46:49.574Z,8.31
2018-05-06T00:52:44.568Z,7.31
2018-05-06T00:58:39.576Z,6.67
2018-05-06T01:04:34.532Z,8.27
2018-05-06T01:10:29.556Z,10.42
2018-05-06T01:16:24.565Z,6.73
2018-05-06T01:22:19.596Z,6.54
2018-05-06T01:28:14.563Z,8.46
2018-05-06T01:34:09.559Z,8.4
2018-05-06T01:40:04.593Z,6.98
2018-05-06T01:45:59.566Z,8.21
2018-05-06T01:51:54.581Z,8.35
2018-05-06T01:57:49.569Z,6.33
2018-05-06T02:03:44.576Z,6.84
2018-05-06T02:09:39.626Z,8.13
2018-05-06T02:15:34.623Z,7.2
2018-05-06T02:21:29.611Z,7.3
2018-05-06T02:27:24.604Z,6.89
2018-05-06T02:33:19.619Z,9.09
2018-05-06T02:39:14.608Z,10.21
2018-05-06T02:45:09.662Z,7.83
2018-05-06T02:51:04.601Z,6.27
2018-05-06T02:56:59.675Z,7.74
2018-05-06T03:02:54.652Z,8.48
2018-05-06T03:08:49.631Z,7.17
2018-05-06T03:14:44.640Z,12.53
2018-05-06T03:20:39.655Z,9.24
2018-05-06T03:26:34.647Z,8.03
2018-05-06T03:32:29.670Z,11.49
2018-05-06T03:38:24.650Z,11.3
2018-05-06T03:44:19.640Z,9.52
2018-05-06T03:50:14.668Z,8.81
2018-05-06T03:56:09.656Z,7.76
2018-05-06T04:02:04.639Z,7.53
2018-05-06T04:07:59.656Z,7.98
2018-05-06T04:13:54.642Z,7.94
2018-05-06T04:19:49.684Z,9.19
2018-05-06T04:25:44.658Z,9.77
2018-05-06T04:31:39.667Z,7.57
2018-05-06T04:37:34.704Z,8.05
2018-05-06T04:43:29.664Z,7.43
2018-05-06T04:49:24.680Z,8.83
2018-05-06T04:55:19.724Z,11.53
2018-05-06T05:01:14.780Z,8.27
2018-05-06T05:07:09.697Z,7.8
2018-05-06T05:13:04.680Z,12.07
2018-05-06T05:18:59.715Z,7.5
2018-05-06T05:24:54.714Z,8.62
2018-05-06T05:30:49.683Z,8.48
2018-05-06T05:36:44.710Z,8.6
2018-05-06T05:42:39.703Z,8.13
2018-05-06T05:48:34.746Z,12.29
2018-05-06T05:54:29.734Z,11.31
2018-05-06T06:00:24.752Z,9.37
2018-05-06T06:06:19.762Z,8.88
2018-05-06T06:12:14.731Z,8.18
2018-05-06T06:18:09.786Z,11.7
2018-05-06T06:24:04.739Z,10.8
2018-05-06T06:29:59.730Z,11.19
2018-05-06T06:35:54.744Z,13.05
2018-05-06T06:41:49.725Z,11.28
2018-05-06T06:47:44.722Z,10.32
2018-05-06T06:53:39.729Z,12.07
2018-05-06T06:59:34.799Z,16.48
2018-05-06T07:05:29.756Z,20.94
2018-05-06T07:11:24.794Z,14.18
2018-05-06T07:17:19.752Z,14.43
2018-05-06T07:23:14.817Z,18.19
2018-05-06T07:29:09.776Z,21.9
2018-05-06T07:35:04.778Z,15.89
2018-05-06T07:40:59.769Z,15.64
2018-05-06T07:46:54.757Z,21.46
2018-05-06T07:52:49.758Z,17.65
2018-05-06T07:58:44.846Z,14.66
2018-05-06T08:04:39.787Z,17.23
2018-05-06T08:10:34.802Z,15
2018-05-06T08:16:29.930Z,13.09
2018-05-06T08:22:24.786Z,13.57
2018-05-06T08:28:19.794Z,15.97
2018-05-06T08:34:14.812Z,13.22
2018-05-06T08:40:09.821Z,14.25
2018-05-06T08:46:04.862Z,14.67
2018-05-06T08:51:59.787Z,13.73
2018-05-06T08:57:54.839Z,11.09
2018-05-06T09:03:49.798Z,13.52
2018-05-06T09:09:44.852Z,13.83
2018-05-06T09:15:39.828Z,14.37
2018-05-06T09:21:34.819Z,12.38
2018-05-06T09:27:29.841Z,12.84
2018-05-06T09:33:24.827Z,13.2
2018-05-06T09:39:19.855Z,12.2
2018-05-06T09:45:14.859Z,12.61
2018-05-06T09:51:09.851Z,29.22
2018-05-06T09:57:04.883Z,15.73
2018-05-06T10:02:59.848Z,11.89
2018-05-06T10:08:54.888Z,11.98
2018-05-06T10:14:49.865Z,12.27
2018-05-06T10:20:44.853Z,9.14
2018-05-06T10:26:39.852Z,8.53
2018-05-06T10:32:34.846Z,9.66
2018-05-06T10:38:29.881Z,10.72
2018-05-06T10:44:24.992Z,9.64
2018-05-06T10:50:19.917Z,10.04
2018-05-06T10:56:14.899Z,9.72
2018-05-06T11:02:09.866Z,10.08
2018-05-06T11:08:04.900Z,8.1
2018-05-06T11:13:59.894Z,9.48
2018-05-06T11:19:54.933Z,9.83
2018-05-06T11:25:49.914Z,9.44
2018-05-06T11:31:44.893Z,10.45
2018-05-06T11:37:39.875Z,8.54
2018-05-06T11:43:34.898Z,9.29
2018-05-06T11:49:29.891Z,9.76
2018-05-06T11:55:24.883Z,8.38
2018-05-06T12:01:19.955Z,8.31
2018-05-06T12:07:14.940Z,8.61
2018-05-06T12:13:09.918Z,8.24
2018-05-06T12:19:04.930Z,11.26
2018-05-06T12:24:59.951Z,9.87
2018-05-06T12:30:54.934Z,9.56
2018-05-06T12:36:49.965Z,9.71
2018-05-06T12:42:44.983Z,8.53
2018-05-06T12:48:39.985Z,9.37
2018-05-06T12:54:34.947Z,9.12
2018-05-06T13:00:29.978Z,8.56
2018-05-06T13:06:24.993Z,9.04
2018-05-06T13:12:19.978Z,8.83
2018-05-06T13:18:14.946Z,8.87
2018-05-06T13:24:10.067Z,9.48
2018-05-06T13:30:05.072Z,8.96
2018-05-06T13:36:00.059Z,8.74
2018-05-06T13:41:54.955Z,9.05
2018-05-06T13:47:49.972Z,8.66
2018-05-06T13:53:45.008Z,8.16
2018-05-06T13:59:39.995Z,11.07
2018-05-06T14:05:35.013Z,11.02
2018-05-06T14:11:29.989Z,13.76
2018-05-06T14:17:25.048Z,10.01
2018-05-06T14:23:19.975Z,10.95
2018-05-06T14:29:15.059Z,10.68
2018-05-06T14:35:10.008Z,10.31
2018-05-06T14:41:04.988Z,10.18
2018-05-06T14:46:59.993Z,10.14
2018-05-06T14:52:55.048Z,9.72
2018-05-06T14:58:49.978Z,9.95
2018-05-06T15:04:45.022Z,10.6
2018-05-06T15:10:40.020Z,9.76
2018-05-06T15:16:35.054Z,10.44
2018-05-06T15:22:30.072Z,9.89
2018-05-06T15:28:25.052Z,10.07
2018-05-06T15:34:20.015Z,10.34
2018-05-06T15:40:15.022Z,10.53
2018-05-06T15:46:10.055Z,10.11
2018-05-06T15:52:05.044Z,9.9
2018-05-06T15:58:00.057Z,10.9
2018-05-06T16:03:55.062Z,9.98
2018-05-06T16:09:50.051Z,9.42
2018-05-06T16:15:45.061Z,8.93
2018-05-06T16:21:40.073Z,9.23
2018-05-06T16:27:35.071Z,10.7
2018-05-06T16:33:30.063Z,11.87
2018-05-06T16:39:25.111Z,10.83
2018-05-06T16:45:20.073Z,10.9
2018-05-06T16:51:15.091Z,12.21
2018-05-06T16:57:10.055Z,15.85
2018-05-06T17:03:05.093Z,15.76
2018-05-06T17:09:00.109Z,12.71
2018-05-06T17:14:55.160Z,12.04
2018-05-06T17:20:50.149Z,13.67
2018-05-06T17:26:45.074Z,13.86
2018-05-06T17:32:40.117Z,13.64
2018-05-06T17:38:35.114Z,14.7
2018-05-06T17:44:30.091Z,16.98
2018-05-06T17:50:25.343Z,15.27
2018-05-06T17:56:20.117Z,15.17
2018-05-06T18:02:15.108Z,15.84
2018-05-06T18:08:10.114Z,15.15
2018-05-06T18:14:05.127Z,17.48
2018-05-06T18:20:00.171Z,14.54
2018-05-06T18:25:55.134Z,15.36
2018-05-06T18:31:50.114Z,15.46
2018-05-06T18:37:45.124Z,17.26
2018-05-06T18:43:40.156Z,15.22
2018-05-06T18:49:35.132Z,15.47
2018-05-06T18:55:30.179Z,15.59
2018-05-06T19:01:25.186Z,15.35
2018-05-06T19:07:20.230Z,16.82
2018-05-06T19:13:15.172Z,14.17
2018-05-06T19:19:10.160Z,14.96
2018-05-06T19:25:05.167Z,14.81
2018-05-06T19:31:00.166Z,13.97
2018-05-06T19:36:55.160Z,13.93
2018-05-06T19:42:50.124Z,13.55
2018-05-06T19:48:45.179Z,14.89
2018-05-06T19:54:40.173Z,17.17
2018-05-06T20:00:35.165Z,12.36
2018-05-06T20:06:30.159Z,12.2
2018-05-06T20:12:25.182Z,12.67
2018-05-06T20:18:20.190Z,13.46
2018-05-06T20:24:15.219Z,12.97
2018-05-06T20:30:10.254Z,13.21
2018-05-06T20:36:05.217Z,11.77
2018-05-06T20:42:00.205Z,11.54
2018-05-06T20:47:55.177Z,13.02
2018-05-06T20:53:50.192Z,12.94
2018-05-06T20:59:45.219Z,13.35
2018-05-06T21:05:40.276Z,11.68
2018-05-06T21:11:35.195Z,15.42
2018-05-06T21:17:30.201Z,14.45
2018-05-06T21:23:25.227Z,12.62
2018-05-06T21:29:20.257Z,12.51
2018-05-06T21:35:15.243Z,11.97
2018-05-06T21:41:10.207Z,12.16
2018-05-06T21:47:05.243Z,12.07
2018-05-06T21:53:00.289Z,11.61
2018-05-06T21:58:55.232Z,12.96
2018-05-06T22:04:50.235Z,11.82
2018-05-06T22:10:45.290Z,11.76
2018-05-06T22:16:40.239Z,11.57
2018-05-06T22:22:35.354Z,12.38
2018-05-06T22:28:30.277Z,13.11
2018-05-06T22:34:25.261Z,11.41
2018-05-06T22:40:20.276Z,13.03
2018-05-06T22:46:15.276Z,9.85
2018-05-06T22:52:10.348Z,12.54
2018-05-06T22:58:05.286Z,11.1
2018-05-06T23:04:00.285Z,11.62
2018-05-06T23:09:55.308Z,11.2
2018-05-06T23:15:50.318Z,10.97
2018-05-06T23:21:45.305Z,13.02
2018-05-06T23:27:40.266Z,12.13
2018-05-06T23:33:35.276Z,11.56
2018-05-06T23:39:30.291Z,12.12
2018-05-06T23:45:25.317Z,12.55
2018-05-06T23:51:20.325Z,12.95
2018-05-06T23:57:15.274Z,13.03
